Полярный

Карта отелей и гостиниц, располагающихся рядом с аэропортом Полярный :

Полярный Республика Саха (Якутия) 66° 24' 0.9612" N, 112° 1' 48.6588" E
Код аэродрома ИКАО
UERP
Код аэродрома RU
УЕРП
Координаты
N66.40027° E112.03018°
Превышение над уровнем моря
519
Основная полоса
17/35
Курс магнитный
173/353
Длина основной ВПП
3104
Ширина основной ВПП
44
Покрытие основной ВПП
Твёрдое (железобетон)
Освещение ВПП
Постоянное
Тип: 
Аэродром
Принадлежность: 
ГА
Статус: 
Действующий
Сайт: 
http://www.mapalrosa.com/index.php?option=com_content&view=article&id=24&Itemid=11
Страна: 
Россия
Регион: 
Республика Саха (Якутия)
Дополнительная информация: 
Горный. Соместного базирования (ФАВТ и АСК ДОСААФ России). Эксплуатант: Мирнинское АП Акционерной компании "АЛРОСА" (ОАО).
Схемы аэропортов: 
Погода: 

Авиационная погода в Полярном

Регион: 
Погода METAR: 
UERP 170000Z 33005G10MPS 8000 -SHSN DRSN BKN011CB OVC100 M10/M12 Q0997 NOSIG RMK QFE704
Время наблюдения
2021-05-17T00:00:00Z
Температура C
-10.0
Точка росы
-12.0
Направление ветра
330
Скорость ветра (узлы)
10
Метео видимость
4.97
Явления погоды
-SHSN DRSN
Условия полета
MVFR
Аэропорт подробнее: 

Найти трансфер

С помощью этой формы Вы можете найти трансфер из аэропорта Полярный в город, аэропорт или вокзал:

Карта места

Javascript is required to view this map.

Погода в аэропортах:

Авиационная погода в Иркутске

Регион: 
Погода METAR: 
UIII 170000Z 31004MPS 9000 -SHRA OVC004CB 09/09 Q1008 R30/290150 NOSIG RMK QBB120 QFE712/0949
Время наблюдения
2021-05-17T00:00:00Z
Температура C
9.0
Точка росы
9.0
Направление ветра
310
Скорость ветра (узлы)
8
Метео видимость
5.59
Явления погоды
-SHRA
Условия полета
LIFR
Аэропорт подробнее: 

Авиационная погода в аэропорту Международный

Регион: 
Погода METAR: 
UKLL 162300Z 23002MPS 9999 -SHRA SCT040CB BKN040 12/11 Q1007 R13/290055 NOSIG
Время наблюдения
2021-05-16T23:00:00Z
Температура C
12.0
Точка росы
11.0
Направление ветра
230
Скорость ветра (узлы)
4
Метео видимость
6.21
Явления погоды
-SHRA
Условия полета
VFR
Аэропорт подробнее: 

Авиационная погода в Полярном

Регион: 
Погода METAR: 
UERP 170000Z 33005G10MPS 8000 -SHSN DRSN BKN011CB OVC100 M10/M12 Q0997 NOSIG RMK QFE704
Время наблюдения
2021-05-17T00:00:00Z
Температура C
-10.0
Точка росы
-12.0
Направление ветра
330
Скорость ветра (узлы)
10
Метео видимость
4.97
Явления погоды
-SHSN DRSN
Условия полета
MVFR
Аэропорт подробнее: 

Авиационная погода в Ровно

Регион: 
Погода METAR: 
UKLR 161400Z 07005MPS 040V100 9999 TS FEW025CB SCT025 20/13 Q1006 NOSIG
Время наблюдения
2021-05-16T14:00:00Z
Температура C
20.0
Точка росы
13.0
Направление ветра
70
Скорость ветра (узлы)
10
Метео видимость
6.21
Явления погоды
TS
Условия полета
VFR
Аэропорт подробнее: